createdAt,value
2023-02-26T00:02:51.025Z,62.25
2023-02-26T00:07:53.249Z,62.99
2023-02-26T00:12:54.904Z,62.65
2023-02-26T00:18:13.541Z,62.86
2023-02-26T00:23:15.317Z,62.92
2023-02-26T00:28:17.046Z,63.55
2023-02-26T00:33:19.020Z,63.58
2023-02-26T00:38:20.600Z,63.48
2023-02-26T00:43:24.668Z,64.06
2023-02-26T00:48:45.905Z,63.70
2023-02-26T00:53:56.812Z,64.33
2023-02-26T00:58:58.259Z,64.33
2023-02-26T01:04:00.331Z,63.77
2023-02-26T01:09:07.803Z,64.72
2023-02-26T01:14:09.437Z,65.05
2023-02-26T01:19:54.531Z,65.10
2023-02-26T01:25:02.450Z,64.95
2023-02-26T01:30:05.738Z,65.27
2023-02-26T01:35:19.199Z,65.51
2023-02-26T01:40:34.968Z,65.44
2023-02-26T01:45:46.130Z,65.88
2023-02-26T01:50:47.550Z,66.05
2023-02-26T01:55:54.270Z,65.81
2023-02-26T02:00:55.843Z,65.81
2023-02-26T02:06:06.052Z,66.37
2023-02-26T02:11:11.339Z,66.53
2023-02-26T02:16:18.593Z,66.44
2023-02-26T02:21:41.163Z,66.29
2023-02-26T02:26:59.608Z,66.97
2023-02-26T02:32:09.956Z,66.84
2023-02-26T02:37:34.560Z,67.48
2023-02-26T02:42:43.110Z,67.18
2023-02-26T02:47:49.970Z,67.00
2023-02-26T02:53:18.935Z,67.52
2023-02-26T02:58:26.304Z,67.95
2023-02-26T03:03:41.583Z,67.22
2023-02-26T03:08:44.073Z,68.45
2023-02-26T03:13:46.705Z,68.45
2023-02-26T03:19:20.596Z,68.05
2023-02-26T03:24:32.099Z,68.57
2023-02-26T03:29:42.426Z,69.13
2023-02-26T03:34:47.533Z,68.84
2023-02-26T03:39:53.194Z,69.44
2023-02-26T03:45:01.708Z,69.52
2023-02-26T03:50:10.562Z,69.93
2023-02-26T03:55:24.078Z,70.17
2023-02-26T04:00:29.838Z,70.85
2023-02-26T04:05:42.298Z,69.95
2023-02-26T04:10:58.590Z,70.68
2023-02-26T04:16:00.280Z,70.87
2023-02-26T04:21:02.129Z,71.06
2023-02-26T04:26:03.625Z,70.91
2023-02-26T04:31:06.674Z,70.86
2023-02-26T04:36:09.103Z,70.80
2023-02-26T04:41:10.564Z,71.22
2023-02-26T04:46:12.015Z,71.01
2023-02-26T04:51:13.554Z,71.21
2023-02-26T04:56:15.407Z,72.18
2023-02-26T05:01:16.924Z,71.64
2023-02-26T05:06:18.372Z,71.63
2023-02-26T05:11:20.231Z,72.10
2023-02-26T05:16:21.716Z,71.60
2023-02-26T05:21:26.073Z,71.65
2023-02-26T05:26:27.964Z,72.35
2023-02-26T05:31:29.996Z,72.03
2023-02-26T05:36:31.795Z,72.06
2023-02-26T05:41:33.203Z,71.83
2023-02-26T05:46:34.861Z,72.34
2023-02-26T05:51:36.330Z,72.06
2023-02-26T05:56:37.957Z,71.82
2023-02-26T06:01:39.511Z,72.03
2023-02-26T06:06:41.124Z,72.72
2023-02-26T06:11:42.608Z,72.65
2023-02-26T06:16:44.152Z,72.35
2023-02-26T06:21:45.712Z,73.12
2023-02-26T06:26:47.368Z,72.80
2023-02-26T06:31:49.003Z,72.93
2023-02-26T06:36:50.493Z,72.67
2023-02-26T06:41:52.474Z,72.73
2023-02-26T06:46:54.110Z,72.59
2023-02-26T06:51:55.622Z,72.50
2023-02-26T06:56:57.797Z,72.49
2023-02-26T07:01:59.525Z,72.46
2023-02-26T07:07:01.260Z,73.11
2023-02-26T07:12:02.973Z,72.54
2023-02-26T07:17:04.812Z,72.70
2023-02-26T07:22:06.450Z,72.28
2023-02-26T07:27:08.316Z,72.14
2023-02-26T07:32:10.053Z,72.35
2023-02-26T07:37:11.563Z,72.67
2023-02-26T07:42:13.263Z,72.50
2023-02-26T07:47:14.741Z,72.36
2023-02-26T07:52:16.673Z,71.87
2023-02-26T07:57:19.518Z,71.65
2023-02-26T08:02:21.039Z,71.84
2023-02-26T08:07:22.462Z,71.74
2023-02-26T08:12:23.999Z,71.25
2023-02-26T08:17:25.507Z,69.04
2023-02-26T08:22:27.032Z,69.66
2023-02-26T08:27:28.488Z,68.97
2023-02-26T08:32:31.014Z,67.71
2023-02-26T08:37:32.689Z,65.99
2023-02-26T08:42:34.128Z,65.80
2023-02-26T08:47:39.576Z,65.42
2023-02-26T08:52:44.002Z,65.45
2023-02-26T08:57:45.447Z,63.28
2023-02-26T09:02:47.158Z,64.74
2023-02-26T09:07:48.807Z,64.56
2023-02-26T09:12:50.633Z,65.09
2023-02-26T09:17:52.169Z,65.19
2023-02-26T09:22:54.160Z,64.73
2023-02-26T09:27:58.926Z,65.34
2023-02-26T09:33:00.630Z,65.19
2023-02-26T09:38:04.023Z,64.30
2023-02-26T09:43:37.747Z,63.41
2023-02-26T09:48:40.338Z,64.31
2023-02-26T09:53:42.310Z,64.50
2023-02-26T09:58:44.926Z,64.28
2023-02-26T10:04:15.939Z,63.03
2023-02-26T10:09:35.914Z,63.32
2023-02-26T10:14:44.662Z,62.40
2023-02-26T10:19:51.539Z,62.70
2023-02-26T10:25:02.340Z,62.43
2023-02-26T10:30:13.926Z,63.14
2023-02-26T10:35:17.612Z,62.91
2023-02-26T10:40:44.603Z,63.14
2023-02-26T10:45:46.014Z,63.78
2023-02-26T10:51:00.252Z,62.99
2023-02-26T10:56:19.305Z,63.36
2023-02-26T11:01:23.851Z,62.67
2023-02-26T11:06:33.565Z,62.36
2023-02-26T11:11:47.248Z,62.14
2023-02-26T11:17:00.753Z,62.65
2023-02-26T11:22:04.331Z,63.05
2023-02-26T11:27:13.000Z,62.02
2023-02-26T11:32:21.505Z,61.34
2023-02-26T11:37:27.770Z,62.11
2023-02-26T11:42:29.415Z,62.17
2023-02-26T11:47:33.259Z,62.86
2023-02-26T11:52:44.953Z,65.10
2023-02-26T11:57:54.151Z,65.82
2023-02-26T12:03:10.746Z,66.32
2023-02-26T12:08:39.046Z,65.65
2023-02-26T12:13:56.581Z,65.29
2023-02-26T12:19:22.004Z,64.65
2023-02-26T12:24:55.840Z,64.51
2023-02-26T12:30:24.998Z,64.67
2023-02-26T12:35:46.838Z,63.61
2023-02-26T12:41:06.853Z,63.22
2023-02-26T12:46:33.141Z,62.36
2023-02-26T12:51:44.789Z,61.95
2023-02-26T12:57:23.917Z,61.73
2023-02-26T13:02:56.537Z,59.89
2023-02-26T13:08:22.396Z,61.10
2023-02-26T13:13:33.099Z,59.86
2023-02-26T13:18:59.758Z,60.54
2023-02-26T13:24:08.605Z,60.54
2023-02-26T13:29:21.120Z,60.26
2023-02-26T13:34:45.272Z,59.34
2023-02-26T13:39:53.791Z,58.68
2023-02-26T13:45:21.153Z,57.50
2023-02-26T13:50:43.897Z,57.60
2023-02-26T13:55:49.087Z,57.77
2023-02-26T14:01:20.271Z,57.95
2023-02-26T14:06:56.603Z,58.33
2023-02-26T14:12:37.415Z,57.54
2023-02-26T14:17:49.138Z,56.90
2023-02-26T14:23:13.195Z,56.58
2023-02-26T14:28:26.959Z,56.01
2023-02-26T14:33:31.180Z,56.03
2023-02-26T14:38:39.432Z,54.98
2023-02-26T14:43:45.020Z,54.55
2023-02-26T14:48:46.990Z,54.45
2023-02-26T14:54:07.069Z,53.34
2023-02-26T14:59:37.751Z,53.47
2023-02-26T15:04:43.010Z,54.14
2023-02-26T15:10:10.024Z,53.98
2023-02-26T15:15:36.385Z,53.34
2023-02-26T15:20:55.048Z,53.72
2023-02-26T15:25:59.348Z,53.36
2023-02-26T15:31:01.794Z,53.34
2023-02-26T15:36:12.552Z,53.34
2023-02-26T15:41:15.174Z,54.18
2023-02-26T15:46:18.144Z,52.79
2023-02-26T15:51:20.454Z,53.23
2023-02-26T15:56:27.239Z,52.76
2023-02-26T16:01:30.985Z,53.02
2023-02-26T16:06:40.386Z,53.58
2023-02-26T16:11:43.686Z,53.82
2023-02-26T16:16:48.759Z,54.79
2023-02-26T16:21:52.739Z,54.54
2023-02-26T16:26:59.364Z,54.86
2023-02-26T16:32:03.185Z,54.48
2023-02-26T16:37:33.746Z,54.99
2023-02-26T16:42:46.442Z,54.21
2023-02-26T16:47:51.361Z,54.76
2023-02-26T16:53:01.137Z,54.61
2023-02-26T16:58:07.678Z,54.54
2023-02-26T17:03:19.407Z,54.24
2023-02-26T17:08:26.255Z,54.55
2023-02-26T17:13:31.523Z,53.49
2023-02-26T17:18:33.188Z,52.16
2023-02-26T17:23:37.785Z,53.80
2023-02-26T17:28:42.743Z,53.31
2023-02-26T17:33:45.187Z,54.26
2023-02-26T17:38:47.671Z,54.13
2023-02-26T17:43:49.123Z,53.97
2023-02-26T17:48:50.542Z,53.90
2023-02-26T17:53:52.012Z,53.95
2023-02-26T17:58:55.272Z,53.91
2023-02-26T18:03:57.408Z,53.33
2023-02-26T18:08:58.889Z,53.43
2023-02-26T18:14:01.247Z,53.82
2023-02-26T18:25:20.639Z,54.39
2023-02-26T18:30:25.704Z,54.50
2023-02-26T18:35:30.044Z,54.39
2023-02-26T18:40:31.518Z,53.88
2023-02-26T18:45:33.002Z,53.61
2023-02-26T18:50:34.566Z,53.71
2023-02-26T18:55:37.273Z,53.54
2023-02-26T19:00:38.903Z,53.86
2023-02-26T19:05:40.406Z,54.31
2023-02-26T19:10:41.885Z,54.47
2023-02-26T19:15:43.462Z,55.08
2023-02-26T19:20:44.998Z,54.86
2023-02-26T19:25:46.441Z,55.34
2023-02-26T19:30:47.921Z,55.44
2023-02-26T19:35:49.519Z,56.28
2023-02-26T19:40:51.077Z,55.83
2023-02-26T19:45:52.893Z,56.14
2023-02-26T19:50:55.493Z,56.23
2023-02-26T19:55:57.073Z,56.21
2023-02-26T20:01:03.453Z,56.15
2023-02-26T20:06:08.268Z,56.00
2023-02-26T20:11:09.772Z,55.89
2023-02-26T20:16:11.609Z,55.74
2023-02-26T20:21:14.161Z,55.44
2023-02-26T20:26:16.718Z,55.54
2023-02-26T20:31:18.370Z,55.73
2023-02-26T20:36:20.488Z,55.97
2023-02-26T20:41:21.976Z,55.97
2023-02-26T20:46:23.461Z,56.47
2023-02-26T20:51:25.611Z,56.20
2023-02-26T20:56:27.236Z,56.32
2023-02-26T21:01:35.402Z,56.68
2023-02-26T21:06:37.511Z,57.09
2023-02-26T21:11:39.458Z,57.26
2023-02-26T21:16:41.471Z,56.82
2023-02-26T21:21:42.973Z,56.53
2023-02-26T21:26:44.409Z,56.70
2023-02-26T21:31:46.021Z,57.14
2023-02-26T21:36:47.642Z,56.71
2023-02-26T21:41:49.120Z,57.06
2023-02-26T21:46:50.774Z,57.25
2023-02-26T21:51:52.849Z,57.40
2023-02-26T21:56:54.880Z,57.63
2023-02-26T22:01:56.479Z,57.96
2023-02-26T22:06:57.940Z,58.22
2023-02-26T22:11:59.382Z,58.76
2023-02-26T22:17:00.808Z,58.38
2023-02-26T22:22:02.249Z,59.64
2023-02-26T22:27:03.972Z,58.99
2023-02-26T22:32:06.533Z,59.56
2023-02-26T22:37:08.087Z,59.83
2023-02-26T22:42:11.645Z,60.40
2023-02-26T22:47:13.125Z,61.18
2023-02-26T22:52:15.034Z,61.01
2023-02-26T22:57:16.521Z,61.59
2023-02-26T23:02:18.145Z,61.58
2023-02-26T23:07:19.703Z,61.69
2023-02-26T23:12:21.133Z,61.86
2023-02-26T23:17:22.571Z,62.27
2023-02-26T23:22:24.294Z,62.75
2023-02-26T23:27:25.752Z,63.23
2023-02-26T23:32:27.189Z,63.75
2023-02-26T23:37:28.745Z,63.61
2023-02-26T23:42:30.257Z,63.74
2023-02-26T23:47:31.677Z,64.93
2023-02-26T23:52:34.143Z,64.91
2023-02-26T23:57:35.843Z,65.58
